Time;durP1;ratioP1;P1;durP2;ratioP2;P2;SDS_P1;SDS_P2;PMS_P1;PMS_P2;Temp;Humidity;BMP_temperature;BMP_pressure;BME280_temperature;BME280_humidity;BME280_pressure;Samples;Min_cycle;Max_cycle;Signal;HPM_P1;HPM_P2
2022/11/22 00:02:04;;;;;;;4.68;0.70;;;;;;;;;;20996496;28;20412;-61
2022/11/22 00:12:06;;;;;;;1.70;0.57;;;;;;;;;;20996580;28;20075;-61
2022/11/22 00:22:08;;;;;;;3.38;0.45;;;;;;;;;;20995298;28;20071;-61
2022/11/22 00:32:10;;;;;;;3.70;0.77;;;;;;;;;;20994272;28;20408;-61
2022/11/22 00:42:12;;;;;;;2.25;0.40;;;;;;;;;;20994482;28;20102;-61
2022/11/22 00:52:14;;;;;;;2.28;0.60;;;;;;;;;;20994166;28;20469;-61
2022/11/22 01:02:16;;;;;;;2.72;0.70;;;;;;;;;;21005685;28;20404;-61
2022/11/22 01:12:18;;;;;;;4.70;1.00;;;;;;;;;;21008779;28;20477;-61
2022/11/22 01:22:21;;;;;;;2.05;0.40;;;;;;;;;;21008221;28;20057;-61
2022/11/22 01:32:25;;;;;;;4.03;0.57;;;;;;;;;;21006015;28;20052;-61
2022/11/22 01:42:42;;;;;;;3.15;0.60;;;;;;;;;;21006445;28;20048;-60
2022/11/22 01:52:45;;;;;;;4.13;0.65;;;;;;;;;;21004962;28;20114;-60
2022/11/22 02:02:50;;;;;;;1.52;0.40;;;;;;;;;;21003598;28;20082;-60
2022/11/22 02:12:54;;;;;;;0.85;0.35;;;;;;;;;;21002735;28;20434;-60
2022/11/22 02:23:11;;;;;;;2.90;0.60;;;;;;;;;;21002018;28;20139;-60
2022/11/22 02:33:14;;;;;;;1.23;0.45;;;;;;;;;;21000438;28;20055;-60
2022/11/22 02:43:21;;;;;;;1.77;0.40;;;;;;;;;;21000037;28;20056;-59
2022/11/22 02:53:24;;;;;;;2.33;0.40;;;;;;;;;;21000628;28;20544;-60
2022/11/22 03:03:27;;;;;;;1.73;0.57;;;;;;;;;;20998093;28;20075;-60
2022/11/22 03:13:31;;;;;;;3.50;0.40;;;;;;;;;;20998686;28;20044;-60
2022/11/22 03:23:34;;;;;;;3.00;0.40;;;;;;;;;;20996526;28;20056;-60
2022/11/22 03:33:37;;;;;;;5.85;0.60;;;;;;;;;;20996815;28;20079;-59
2022/11/22 03:43:39;;;;;;;2.60;0.68;;;;;;;;;;20996220;28;20056;-60
2022/11/22 03:53:42;;;;;;;3.85;0.68;;;;;;;;;;20996085;28;20394;-60
2022/11/22 04:03:45;;;;;;;3.58;0.80;;;;;;;;;;20995562;28;20048;-61
2022/11/22 04:34:32;;;;;;;1.02;0.40;;;;;;;;;;21001925;28;20072;-60
2022/11/22 04:44:40;;;;;;;3.78;0.40;;;;;;;;;;21009145;28;20091;-59
2022/11/22 04:54:50;;;;;;;4.90;0.47;;;;;;;;;;21009578;28;20481;-60
2022/11/22 05:04:52;;;;;;;2.30;0.57;;;;;;;;;;21007595;28;20057;-60
2022/11/22 05:14:54;;;;;;;3.78;0.50;;;;;;;;;;21007381;28;20048;-60
2022/11/22 05:24:56;;;;;;;3.03;0.43;;;;;;;;;;21006031;28;20208;-60
2022/11/22 05:34:58;;;;;;;3.42;0.50;;;;;;;;;;21006628;28;20072;-60
2022/11/22 05:45:01;;;;;;;2.92;0.40;;;;;;;;;;21003839;28;20408;-60
2022/11/22 05:55:03;;;;;;;2.58;0.52;;;;;;;;;;21004933;28;20503;-60
2022/11/22 06:05:05;;;;;;;3.05;0.50;;;;;;;;;;21003402;28;20059;-60
2022/11/22 06:15:08;;;;;;;4.88;0.68;;;;;;;;;;21002769;28;20044;-60
2022/11/22 06:25:10;;;;;;;2.72;0.43;;;;;;;;;;21001537;28;20087;-61
2022/11/22 06:35:12;;;;;;;2.72;0.50;;;;;;;;;;21000239;28;20131;-61
2022/11/22 06:45:14;;;;;;;6.10;0.75;;;;;;;;;;21000045;28;20138;-60
2022/11/22 06:55:16;;;;;;;2.38;0.40;;;;;;;;;;20997539;28;20476;-60
2022/11/22 07:05:18;;;;;;;4.32;0.43;;;;;;;;;;20998898;28;20049;-60
2022/11/22 07:15:20;;;;;;;4.57;0.60;;;;;;;;;;20998574;28;20409;-60
2022/11/22 07:25:23;;;;;;;4.50;0.77;;;;;;;;;;20997228;28;20608;-61
2022/11/22 07:35:25;;;;;;;3.28;0.50;;;;;;;;;;20995885;28;20059;-61
2022/11/22 07:45:27;;;;;;;4.85;0.80;;;;;;;;;;20997114;28;20060;-61
2022/11/22 07:55:30;;;;;;;6.78;1.00;;;;;;;;;;20996237;28;20065;-60
2022/11/22 08:05:32;;;;;;;4.90;0.93;;;;;;;;;;20998204;28;20055;-61
2022/11/22 08:15:34;;;;;;;6.93;0.95;;;;;;;;;;21012215;28;20066;-61
2022/11/22 08:25:36;;;;;;;5.80;1.40;;;;;;;;;;21010881;28;20147;-61
2022/11/22 08:35:38;;;;;;;3.05;1.13;;;;;;;;;;21010719;28;20047;-61
2022/11/22 08:45:41;;;;;;;6.28;1.10;;;;;;;;;;21009452;28;20055;-60
2022/11/22 08:55:43;;;;;;;7.20;1.70;;;;;;;;;;21008483;28;20508;-61
2022/11/22 09:05:45;;;;;;;11.68;4.38;;;;;;;;;;21008107;28;20400;-60
2022/11/22 09:15:47;;;;;;;12.77;3.05;;;;;;;;;;21007826;28;20459;-61
2022/11/22 09:25:56;;;;;;;4.45;0.85;;;;;;;;;;21006880;28;20057;-61
2022/11/22 09:36:03;;;;;;;10.82;0.98;;;;;;;;;;21006114;28;20040;-60
2022/11/22 09:46:17;;;;;;;10.52;1.45;;;;;;;;;;21005267;28;20509;-61
2022/11/22 09:56:21;;;;;;;7.63;1.20;;;;;;;;;;21002743;28;20158;-61
2022/11/22 10:06:33;;;;;;;6.65;1.27;;;;;;;;;;21003976;28;20568;-60
2022/11/22 10:16:41;;;;;;;7.18;1.25;;;;;;;;;;21003766;28;20079;-61
2022/11/22 10:26:45;;;;;;;11.30;1.80;;;;;;;;;;21001222;28;20122;-67
2022/11/22 10:37:23;;;;;;;13.50;2.30;;;;;;;;;;20999060;28;20114;-59
2022/11/22 10:47:44;;;;;;;17.20;3.70;;;;;;;;;;20908390;28;20049;-64
2022/11/22 10:58:04;;;;;;;10.10;1.70;;;;;;;;;;20908234;28;20057;-65
2022/11/22 11:08:10;;;;;;;9.60;1.98;;;;;;;;;;20906493;28;20513;-68
2022/11/22 11:18:45;;;;;;;15.30;2.30;;;;;;;;;;20956873;28;20393;-63
2022/11/22 11:28:48;;;;;;;12.32;2.17;;;;;;;;;;20904334;28;20053;-60
2022/11/22 11:38:51;;;;;;;12.35;1.75;;;;;;;;;;20905022;28;20057;-60
2022/11/22 11:49:29;;;;;;;10.73;2.17;;;;;;;;;;20904258;28;20044;-65
2022/11/22 11:59:37;;;;;;;11.27;1.67;;;;;;;;;;20610638;28;20082;-57
2022/11/22 12:09:43;;;;;;;12.02;1.73;;;;;;;;;;20658232;28;20133;-62
2022/11/22 12:19:54;;;;;;;7.65;1.77;;;;;;;;;;20657874;28;20423;-57
2022/11/22 12:29:57;;;;;;;8.80;2.20;;;;;;;;;;20835824;28;20170;-59
2022/11/22 12:40:02;;;;;;;8.75;1.70;;;;;;;;;;20993467;28;20084;-60
2022/11/22 12:50:10;;;;;;;13.32;2.28;;;;;;;;;;20994864;28;20056;-65
2022/11/22 13:00:15;;;;;;;10.07;1.20;;;;;;;;;;21007552;28;20499;-63
2022/11/22 13:10:22;;;;;;;5.57;1.27;;;;;;;;;;21008262;28;20090;-66
2022/11/22 13:20:36;;;;;;;6.57;1.08;;;;;;;;;;21005481;28;20157;-57
2022/11/22 13:30:39;;;;;;;5.72;1.17;;;;;;;;;;21006091;28;20053;-58
2022/11/22 13:40:42;;;;;;;3.95;0.93;;;;;;;;;;21006297;28;20139;-57
2022/11/22 13:50:48;;;;;;;5.63;1.13;;;;;;;;;;21004931;28;20051;-57
2022/11/22 14:00:52;;;;;;;3.42;0.73;;;;;;;;;;21003966;28;20481;-59
2022/11/22 14:10:54;;;;;;;4.38;1.10;;;;;;;;;;21003046;28;20378;-57
2022/11/22 14:21:06;;;;;;;2.50;1.20;;;;;;;;;;21002370;28;20087;-57
2022/11/22 14:31:23;;;;;;;4.00;0.68;;;;;;;;;;21001511;28;20057;-57
2022/11/22 14:41:25;;;;;;;4.97;1.02;;;;;;;;;;21000166;28;20056;-57
2022/11/22 14:51:29;;;;;;;2.55;0.70;;;;;;;;;;21000119;28;20061;-56
2022/11/22 15:01:45;;;;;;;7.45;1.35;;;;;;;;;;20999247;28;20405;-56
2022/11/22 15:12:06;;;;;;;3.10;0.60;;;;;;;;;;20998667;28;20512;-56
2022/11/22 15:22:19;;;;;;;3.80;0.55;;;;;;;;;;20956653;28;20433;-59
2022/11/22 15:32:22;;;;;;;2.75;0.82;;;;;;;;;;20910704;28;20053;-60
2022/11/22 15:42:24;;;;;;;3.17;0.70;;;;;;;;;;20911204;28;20115;-62
2022/11/22 15:52:29;;;;;;;2.17;0.38;;;;;;;;;;20908977;28;20095;-62
2022/11/22 16:02:32;;;;;;;6.07;2.00;;;;;;;;;;20908583;28;20048;-61
2022/11/22 16:12:36;;;;;;;2.63;0.60;;;;;;;;;;20908374;28;20124;-62
2022/11/22 16:22:39;;;;;;;1.98;0.68;;;;;;;;;;20908349;28;20057;-64
2022/11/22 16:32:41;;;;;;;1.00;0.50;;;;;;;;;;20920876;28;20118;-61
2022/11/22 16:42:44;;;;;;;4.40;1.00;;;;;;;;;;20924393;28;20053;-64
2022/11/22 16:52:51;;;;;;;1.60;0.60;;;;;;;;;;20922671;28;20456;-61
2022/11/22 17:02:53;;;;;;;2.35;0.47;;;;;;;;;;20921333;28;20064;-64
2022/11/22 17:12:55;;;;;;;3.83;0.95;;;;;;;;;;20920577;28;20497;-60
2022/11/22 17:22:57;;;;;;;2.08;0.45;;;;;;;;;;20919841;28;20061;-61
2022/11/22 17:32:59;;;;;;;0.73;0.30;;;;;;;;;;20917853;28;20117;-61
2022/11/22 17:43:02;;;;;;;1.30;0.50;;;;;;;;;;20917901;28;20404;-59
2022/11/22 17:53:04;;;;;;;0.70;0.47;;;;;;;;;;20915357;28;20041;-60
2022/11/22 18:03:07;;;;;;;1.55;0.60;;;;;;;;;;20916397;28;20433;-59
2022/11/22 18:13:08;;;;;;;1.42;1.15;;;;;;;;;;20916073;28;20147;-61
2022/11/22 18:23:11;;;;;;;1.00;0.50;;;;;;;;;;20915874;28;20493;-60
2022/11/22 18:33:13;;;;;;;1.35;0.60;;;;;;;;;;20914054;28;20053;-60
2022/11/22 18:43:16;;;;;;;1.10;0.80;;;;;;;;;;20911099;28;20417;-60
2022/11/22 18:53:17;;;;;;;1.10;0.63;;;;;;;;;;20912232;28;20412;-60
2022/11/22 19:03:19;;;;;;;1.10;0.52;;;;;;;;;;20916467;28;20049;-59
2022/11/22 19:13:22;;;;;;;1.73;1.10;;;;;;;;;;20916334;28;20477;-61
2022/11/22 19:23:25;;;;;;;1.00;0.50;;;;;;;;;;20913337;28;20094;-59
2022/11/22 19:33:27;;;;;;;1.98;0.45;;;;;;;;;;20912121;28;20057;-60
2022/11/22 19:43:29;;;;;;;0.95;0.38;;;;;;;;;;20912645;28;20055;-59
2022/11/22 19:53:30;;;;;;;1.02;0.60;;;;;;;;;;20912936;28;20052;-58
2022/11/22 20:03:33;;;;;;;1.00;0.55;;;;;;;;;;20923462;28;20439;-60
2022/11/22 20:13:40;;;;;;;1.58;0.88;;;;;;;;;;20939306;28;20045;-60
2022/11/22 20:23:43;;;;;;;1.85;0.40;;;;;;;;;;20938636;28;20048;-58
2022/11/22 20:33:47;;;;;;;1.88;0.63;;;;;;;;;;20939160;28;20049;-61
2022/11/22 20:43:51;;;;;;;1.67;0.68;;;;;;;;;;20938492;28;20477;-61
2022/11/22 20:53:53;;;;;;;0.52;0.45;;;;;;;;;;20938685;28;20456;-61
2022/11/22 21:03:55;;;;;;;1.20;0.57;;;;;;;;;;20937573;28;20045;-61
2022/11/22 21:13:58;;;;;;;2.10;0.52;;;;;;;;;;20933386;28;20390;-60
2022/11/22 21:24:01;;;;;;;0.65;0.40;;;;;;;;;;20923647;28;20064;-56
2022/11/22 21:34:03;;;;;;;2.00;0.63;;;;;;;;;;20921962;28;20045;-56
2022/11/22 21:44:05;;;;;;;2.25;1.25;;;;;;;;;;20921224;28;20055;-56
2022/11/22 21:54:07;;;;;;;2.00;0.75;;;;;;;;;;20920836;28;20049;-57
2022/11/22 22:04:09;;;;;;;2.08;0.90;;;;;;;;;;20921064;28;20543;-57
2022/11/22 22:14:12;;;;;;;2.40;0.90;;;;;;;;;;20920801;28;20541;-57
2022/11/22 22:24:14;;;;;;;1.80;0.98;;;;;;;;;;20917832;28;20055;-59
2022/11/22 22:34:18;;;;;;;2.20;0.88;;;;;;;;;;20918586;28;20049;-57
2022/11/22 22:44:19;;;;;;;1.70;1.15;;;;;;;;;;20918281;28;20110;-55
2022/11/22 22:54:21;;;;;;;3.63;1.30;;;;;;;;;;20915340;28;20412;-55
2022/11/22 23:04:23;;;;;;;4.28;1.00;;;;;;;;;;20916753;28;20133;-57
2022/11/22 23:14:29;;;;;;;5.38;1.40;;;;;;;;;;20915531;28;20053;-56
2022/11/22 23:24:34;;;;;;;5.05;1.30;;;;;;;;;;20914450;28;20075;-57
2022/11/22 23:34:38;;;;;;;6.50;1.23;;;;;;;;;;20913456;28;20126;-59
2022/11/22 23:44:40;;;;;;;6.35;1.17;;;;;;;;;;20912501;28;20048;-62
2022/11/22 23:54:42;;;;;;;4.78;1.15;;;;;;;;;;20912727;28;20049;-59
